sensor_id;sensor_type;location;lat;lon;timestamp;temperature;humidity
12123;DHT22;6125;59.628;17.852;2023-07-24T00:01:37;14.40;99.90
12123;DHT22;6125;59.628;17.852;2023-07-24T00:04:04;14.30;99.90
12123;DHT22;6125;59.628;17.852;2023-07-24T00:06:33;14.20;99.90
12123;DHT22;6125;59.628;17.852;2023-07-24T00:09:00;14.10;99.90
12123;DHT22;6125;59.628;17.852;2023-07-24T00:11:27;14.00;99.90
12123;DHT22;6125;59.628;17.852;2023-07-24T00:13:54;14.00;99.90
12123;DHT22;6125;59.628;17.852;2023-07-24T00:16:22;13.90;99.90
12123;DHT22;6125;59.628;17.852;2023-07-24T00:18:49;13.90;99.90
12123;DHT22;6125;59.628;17.852;2023-07-24T00:21:16;13.80;99.90
12123;DHT22;6125;59.628;17.852;2023-07-24T00:23:44;13.80;99.90
12123;DHT22;6125;59.628;17.852;2023-07-24T00:26:11;13.70;99.90
12123;DHT22;6125;59.628;17.852;2023-07-24T00:28:38;13.70;99.90
12123;DHT22;6125;59.628;17.852;2023-07-24T00:31:05;13.60;99.90
12123;DHT22;6125;59.628;17.852;2023-07-24T00:33:32;13.50;99.90
12123;DHT22;6125;59.628;17.852;2023-07-24T00:36:00;13.50;99.90
12123;DHT22;6125;59.628;17.852;2023-07-24T00:38:27;13.40;99.90
12123;DHT22;6125;59.628;17.852;2023-07-24T00:40:55;13.40;99.90
12123;DHT22;6125;59.628;17.852;2023-07-24T00:43:23;13.40;99.90
12123;DHT22;6125;59.628;17.852;2023-07-24T00:45:50;13.30;99.90
12123;DHT22;6125;59.628;17.852;2023-07-24T00:48:17;13.30;99.90
12123;DHT22;6125;59.628;17.852;2023-07-24T00:50:45;13.30;99.90
12123;DHT22;6125;59.628;17.852;2023-07-24T00:53:13;13.30;99.90
12123;DHT22;6125;59.628;17.852;2023-07-24T00:55:42;13.20;99.90
12123;DHT22;6125;59.628;17.852;2023-07-24T00:58:11;13.20;99.90
12123;DHT22;6125;59.628;17.852;2023-07-24T01:00:38;13.20;99.90
12123;DHT22;6125;59.628;17.852;2023-07-24T01:03:06;13.10;99.90
12123;DHT22;6125;59.628;17.852;2023-07-24T01:05:33;13.10;99.90
12123;DHT22;6125;59.628;17.852;2023-07-24T01:08:00;12.90;99.90
12123;DHT22;6125;59.628;17.852;2023-07-24T01:10:27;12.80;99.90
12123;DHT22;6125;59.628;17.852;2023-07-24T01:12:59;12.70;99.90
12123;DHT22;6125;59.628;17.852;2023-07-24T01:15:31;12.70;99.90
12123;DHT22;6125;59.628;17.852;2023-07-24T01:18:03;12.60;99.90
12123;DHT22;6125;59.628;17.852;2023-07-24T01:20:30;12.60;99.90
12123;DHT22;6125;59.628;17.852;2023-07-24T01:23:14;12.60;99.90
12123;DHT22;6125;59.628;17.852;2023-07-24T01:25:56;12.60;99.90
12123;DHT22;6125;59.628;17.852;2023-07-24T01:28:23;12.50;99.90
12123;DHT22;6125;59.628;17.852;2023-07-24T01:30:51;12.50;99.90
12123;DHT22;6125;59.628;17.852;2023-07-24T01:33:19;12.40;99.90
12123;DHT22;6125;59.628;17.852;2023-07-24T01:35:49;12.40;99.90
12123;DHT22;6125;59.628;17.852;2023-07-24T01:38:17;12.40;99.90
12123;DHT22;6125;59.628;17.852;2023-07-24T01:40:45;12.40;99.90
12123;DHT22;6125;59.628;17.852;2023-07-24T01:43:14;12.30;99.90
12123;DHT22;6125;59.628;17.852;2023-07-24T01:45:42;12.30;99.90
12123;DHT22;6125;59.628;17.852;2023-07-24T01:48:09;12.30;99.90
12123;DHT22;6125;59.628;17.852;2023-07-24T01:50:36;12.30;99.90
12123;DHT22;6125;59.628;17.852;2023-07-24T01:53:03;12.30;99.90
12123;DHT22;6125;59.628;17.852;2023-07-24T01:55:30;12.20;99.90
12123;DHT22;6125;59.628;17.852;2023-07-24T01:57:57;12.20;99.90
12123;DHT22;6125;59.628;17.852;2023-07-24T02:00:26;12.20;99.90
12123;DHT22;6125;59.628;17.852;2023-07-24T02:02:53;12.20;99.90
12123;DHT22;6125;59.628;17.852;2023-07-24T02:05:20;12.20;99.90
12123;DHT22;6125;59.628;17.852;2023-07-24T02:07:47;12.20;99.90
12123;DHT22;6125;59.628;17.852;2023-07-24T02:10:14;12.10;99.90
12123;DHT22;6125;59.628;17.852;2023-07-24T02:12:41;12.10;99.90
12123;DHT22;6125;59.628;17.852;2023-07-24T02:15:09;12.00;99.90
12123;DHT22;6125;59.628;17.852;2023-07-24T02:17:37;11.90;99.90
12123;DHT22;6125;59.628;17.852;2023-07-24T02:20:05;11.90;99.90
12123;DHT22;6125;59.628;17.852;2023-07-24T02:22:32;11.80;99.90
12123;DHT22;6125;59.628;17.852;2023-07-24T02:24:59;11.70;99.90
12123;DHT22;6125;59.628;17.852;2023-07-24T02:27:28;11.70;99.90
12123;DHT22;6125;59.628;17.852;2023-07-24T02:29:57;11.60;99.90
12123;DHT22;6125;59.628;17.852;2023-07-24T02:32:24;11.60;99.90
12123;DHT22;6125;59.628;17.852;2023-07-24T02:34:53;11.60;99.90
12123;DHT22;6125;59.628;17.852;2023-07-24T02:37:20;11.60;99.90
12123;DHT22;6125;59.628;17.852;2023-07-24T02:39:47;11.70;99.90
12123;DHT22;6125;59.628;17.852;2023-07-24T02:42:14;11.70;99.90
12123;DHT22;6125;59.628;17.852;2023-07-24T02:44:41;11.70;99.90
12123;DHT22;6125;59.628;17.852;2023-07-24T02:47:08;11.70;99.90
12123;DHT22;6125;59.628;17.852;2023-07-24T02:49:35;11.70;99.90
12123;DHT22;6125;59.628;17.852;2023-07-24T02:52:05;11.70;99.90
12123;DHT22;6125;59.628;17.852;2023-07-24T02:54:32;11.60;99.90
12123;DHT22;6125;59.628;17.852;2023-07-24T02:56:59;11.60;99.90
12123;DHT22;6125;59.628;17.852;2023-07-24T02:59:26;11.60;99.90
12123;DHT22;6125;59.628;17.852;2023-07-24T03:01:53;11.60;99.90
12123;DHT22;6125;59.628;17.852;2023-07-24T03:04:20;11.60;99.90
12123;DHT22;6125;59.628;17.852;2023-07-24T03:06:48;11.60;99.90
12123;DHT22;6125;59.628;17.852;2023-07-24T03:09:16;11.70;99.90
12123;DHT22;6125;59.628;17.852;2023-07-24T03:11:44;11.70;99.90
12123;DHT22;6125;59.628;17.852;2023-07-24T03:14:11;11.80;99.90
12123;DHT22;6125;59.628;17.852;2023-07-24T03:16:38;11.80;99.90
12123;DHT22;6125;59.628;17.852;2023-07-24T03:19:05;11.80;99.90
12123;DHT22;6125;59.628;17.852;2023-07-24T03:21:32;11.90;99.90
12123;DHT22;6125;59.628;17.852;2023-07-24T03:23:59;11.90;99.90
12123;DHT22;6125;59.628;17.852;2023-07-24T03:26:27;11.90;99.90
12123;DHT22;6125;59.628;17.852;2023-07-24T03:28:54;12.00;99.90
12123;DHT22;6125;59.628;17.852;2023-07-24T03:31:21;11.90;99.90
12123;DHT22;6125;59.628;17.852;2023-07-24T03:33:48;11.90;99.90
12123;DHT22;6125;59.628;17.852;2023-07-24T03:36:15;12.00;99.90
12123;DHT22;6125;59.628;17.852;2023-07-24T03:38:42;12.00;99.90
12123;DHT22;6125;59.628;17.852;2023-07-24T03:41:10;12.10;99.90
12123;DHT22;6125;59.628;17.852;2023-07-24T03:43:38;12.20;99.90
12123;DHT22;6125;59.628;17.852;2023-07-24T03:46:06;12.30;99.90
12123;DHT22;6125;59.628;17.852;2023-07-24T03:48:33;12.30;99.90
12123;DHT22;6125;59.628;17.852;2023-07-24T03:51:01;12.40;99.90
12123;DHT22;6125;59.628;17.852;2023-07-24T03:53:28;12.40;99.90
12123;DHT22;6125;59.628;17.852;2023-07-24T03:55:55;12.60;99.90
12123;DHT22;6125;59.628;17.852;2023-07-24T03:58:22;12.60;99.90
12123;DHT22;6125;59.628;17.852;2023-07-24T04:00:50;12.70;99.90
12123;DHT22;6125;59.628;17.852;2023-07-24T04:03:18;12.80;99.90
12123;DHT22;6125;59.628;17.852;2023-07-24T04:05:45;13.00;99.90
12123;DHT22;6125;59.628;17.852;2023-07-24T04:08:12;13.10;99.90
12123;DHT22;6125;59.628;17.852;2023-07-24T04:10:39;13.30;99.90
12123;DHT22;6125;59.628;17.852;2023-07-24T04:13:06;13.50;99.90
12123;DHT22;6125;59.628;17.852;2023-07-24T04:15:33;13.70;99.90
12123;DHT22;6125;59.628;17.852;2023-07-24T04:18:01;13.80;99.90
12123;DHT22;6125;59.628;17.852;2023-07-24T04:20:29;13.90;99.90
12123;DHT22;6125;59.628;17.852;2023-07-24T04:22:56;14.00;99.90
12123;DHT22;6125;59.628;17.852;2023-07-24T04:25:23;14.10;99.90
12123;DHT22;6125;59.628;17.852;2023-07-24T04:27:50;14.20;99.90
12123;DHT22;6125;59.628;17.852;2023-07-24T04:30:17;14.30;99.90
12123;DHT22;6125;59.628;17.852;2023-07-24T04:32:44;14.40;99.90
12123;DHT22;6125;59.628;17.852;2023-07-24T04:35:13;14.50;99.90
12123;DHT22;6125;59.628;17.852;2023-07-24T04:37:40;14.60;99.90
12123;DHT22;6125;59.628;17.852;2023-07-24T04:40:08;14.60;99.90
12123;DHT22;6125;59.628;17.852;2023-07-24T04:42:36;14.70;99.90
12123;DHT22;6125;59.628;17.852;2023-07-24T04:45:03;14.70;99.90
12123;DHT22;6125;59.628;17.852;2023-07-24T04:47:30;14.80;99.90
12123;DHT22;6125;59.628;17.852;2023-07-24T04:49:57;14.80;99.90
12123;DHT22;6125;59.628;17.852;2023-07-24T04:52:26;14.80;99.90
12123;DHT22;6125;59.628;17.852;2023-07-24T04:54:53;14.90;99.90
12123;DHT22;6125;59.628;17.852;2023-07-24T04:57:20;15.00;99.90
12123;DHT22;6125;59.628;17.852;2023-07-24T04:59:47;15.00;99.90
12123;DHT22;6125;59.628;17.852;2023-07-24T05:02:14;15.10;99.90
12123;DHT22;6125;59.628;17.852;2023-07-24T05:04:41;15.20;99.90
12123;DHT22;6125;59.628;17.852;2023-07-24T05:07:09;15.20;99.90
12123;DHT22;6125;59.628;17.852;2023-07-24T05:09:37;15.30;99.90
12123;DHT22;6125;59.628;17.852;2023-07-24T05:12:05;15.40;99.90
12123;DHT22;6125;59.628;17.852;2023-07-24T05:14:33;15.50;99.90
12123;DHT22;6125;59.628;17.852;2023-07-24T05:17:00;15.60;99.90
12123;DHT22;6125;59.628;17.852;2023-07-24T05:19:27;15.70;99.90
12123;DHT22;6125;59.628;17.852;2023-07-24T05:21:54;15.70;99.90
12123;DHT22;6125;59.628;17.852;2023-07-24T05:24:21;15.80;99.90
12123;DHT22;6125;59.628;17.852;2023-07-24T05:26:49;15.80;99.90
12123;DHT22;6125;59.628;17.852;2023-07-24T05:29:16;15.90;99.90
12123;DHT22;6125;59.628;17.852;2023-07-24T05:31:43;16.00;99.90
12123;DHT22;6125;59.628;17.852;2023-07-24T05:34:10;16.10;99.90
12123;DHT22;6125;59.628;17.852;2023-07-24T05:36:37;16.20;99.90
12123;DHT22;6125;59.628;17.852;2023-07-24T05:39:05;16.30;99.90
12123;DHT22;6125;59.628;17.852;2023-07-24T05:41:32;16.30;99.90
12123;DHT22;6125;59.628;17.852;2023-07-24T05:44:00;16.40;99.90
12123;DHT22;6125;59.628;17.852;2023-07-24T05:46:28;16.40;99.90
12123;DHT22;6125;59.628;17.852;2023-07-24T05:48:55;16.40;99.90
12123;DHT22;6125;59.628;17.852;2023-07-24T05:51:22;16.40;99.90
12123;DHT22;6125;59.628;17.852;2023-07-24T05:53:49;16.50;99.90
12123;DHT22;6125;59.628;17.852;2023-07-24T05:56:16;16.60;99.90
12123;DHT22;6125;59.628;17.852;2023-07-24T05:58:43;16.70;99.90
12123;DHT22;6125;59.628;17.852;2023-07-24T06:01:12;16.70;99.90
12123;DHT22;6125;59.628;17.852;2023-07-24T06:03:40;16.80;99.90
12123;DHT22;6125;59.628;17.852;2023-07-24T06:06:07;16.90;99.90
12123;DHT22;6125;59.628;17.852;2023-07-24T06:08:34;16.90;99.90
12123;DHT22;6125;59.628;17.852;2023-07-24T06:11:01;16.90;99.90
12123;DHT22;6125;59.628;17.852;2023-07-24T06:13:28;17.00;99.90
12123;DHT22;6125;59.628;17.852;2023-07-24T06:15:55;17.10;99.90
12123;DHT22;6125;59.628;17.852;2023-07-24T06:18:23;17.20;99.90
12123;DHT22;6125;59.628;17.852;2023-07-24T06:20:53;17.30;99.90
12123;DHT22;6125;59.628;17.852;2023-07-24T06:23:20;17.30;99.90
12123;DHT22;6125;59.628;17.852;2023-07-24T06:25:47;17.40;99.90
12123;DHT22;6125;59.628;17.852;2023-07-24T06:28:14;17.50;99.90
12123;DHT22;6125;59.628;17.852;2023-07-24T06:30:41;17.60;99.90
12123;DHT22;6125;59.628;17.852;2023-07-24T06:33:09;17.80;99.90
12123;DHT22;6125;59.628;17.852;2023-07-24T06:35:37;17.80;99.90
12123;DHT22;6125;59.628;17.852;2023-07-24T06:38:04;17.90;99.90
12123;DHT22;6125;59.628;17.852;2023-07-24T06:40:34;18.00;99.90
12123;DHT22;6125;59.628;17.852;2023-07-24T06:43:01;18.00;99.90
12123;DHT22;6125;59.628;17.852;2023-07-24T06:45:28;18.10;99.90
12123;DHT22;6125;59.628;17.852;2023-07-24T06:47:55;18.30;99.90
12123;DHT22;6125;59.628;17.852;2023-07-24T06:50:22;18.40;99.90
12123;DHT22;6125;59.628;17.852;2023-07-24T06:52:50;18.50;99.90
12123;DHT22;6125;59.628;17.852;2023-07-24T06:55:19;18.60;99.90
12123;DHT22;6125;59.628;17.852;2023-07-24T06:57:46;18.60;99.90
12123;DHT22;6125;59.628;17.852;2023-07-24T07:00:14;18.70;99.90
12123;DHT22;6125;59.628;17.852;2023-07-24T07:02:41;18.80;99.90
12123;DHT22;6125;59.628;17.852;2023-07-24T07:05:08;18.80;99.90
12123;DHT22;6125;59.628;17.852;2023-07-24T07:07:36;18.80;99.90
12123;DHT22;6125;59.628;17.852;2023-07-24T07:10:05;18.80;99.90
12123;DHT22;6125;59.628;17.852;2023-07-24T07:12:32;19.00;99.90
12123;DHT22;6125;59.628;17.852;2023-07-24T07:15:00;19.10;99.90
12123;DHT22;6125;59.628;17.852;2023-07-24T07:17:27;19.20;99.90
12123;DHT22;6125;59.628;17.852;2023-07-24T07:19:54;19.30;99.90
12123;DHT22;6125;59.628;17.852;2023-07-24T07:22:23;19.20;99.90
12123;DHT22;6125;59.628;17.852;2023-07-24T07:24:50;19.20;99.90
12123;DHT22;6125;59.628;17.852;2023-07-24T07:27:18;19.20;99.90
12123;DHT22;6125;59.628;17.852;2023-07-24T07:29:45;19.10;99.90
12123;DHT22;6125;59.628;17.852;2023-07-24T07:32:12;19.10;99.90
12123;DHT22;6125;59.628;17.852;2023-07-24T07:34:39;19.00;99.90
12123;DHT22;6125;59.628;17.852;2023-07-24T07:37:06;19.00;99.90
12123;DHT22;6125;59.628;17.852;2023-07-24T07:39:33;19.10;99.90
12123;DHT22;6125;59.628;17.852;2023-07-24T07:42:01;19.10;99.90
12123;DHT22;6125;59.628;17.852;2023-07-24T07:44:30;19.10;99.90
12123;DHT22;6125;59.628;17.852;2023-07-24T07:46:57;19.20;99.90
12123;DHT22;6125;59.628;17.852;2023-07-24T07:49:24;19.20;99.90
12123;DHT22;6125;59.628;17.852;2023-07-24T07:51:51;19.20;99.90
12123;DHT22;6125;59.628;17.852;2023-07-24T07:54:18;19.30;99.90
12123;DHT22;6125;59.628;17.852;2023-07-24T07:56:45;19.30;99.90
12123;DHT22;6125;59.628;17.852;2023-07-24T07:59:12;19.40;99.90
12123;DHT22;6125;59.628;17.852;2023-07-24T08:01:41;19.40;99.90
12123;DHT22;6125;59.628;17.852;2023-07-24T08:04:08;19.50;99.90
12123;DHT22;6125;59.628;17.852;2023-07-24T08:06:35;19.60;99.90
12123;DHT22;6125;59.628;17.852;2023-07-24T08:09:02;19.70;99.90
12123;DHT22;6125;59.628;17.852;2023-07-24T08:11:29;19.80;99.90
12123;DHT22;6125;59.628;17.852;2023-07-24T08:13:56;19.90;99.90
12123;DHT22;6125;59.628;17.852;2023-07-24T08:16:23;20.00;99.90
12123;DHT22;6125;59.628;17.852;2023-07-24T08:18:52;20.10;99.90
12123;DHT22;6125;59.628;17.852;2023-07-24T08:21:19;20.10;99.90
12123;DHT22;6125;59.628;17.852;2023-07-24T08:23:46;20.00;99.90
12123;DHT22;6125;59.628;17.852;2023-07-24T08:26:13;20.10;99.90
12123;DHT22;6125;59.628;17.852;2023-07-24T08:28:40;20.10;99.90
12123;DHT22;6125;59.628;17.852;2023-07-24T08:31:08;20.10;99.90
12123;DHT22;6125;59.628;17.852;2023-07-24T08:33:35;20.10;99.90
12123;DHT22;6125;59.628;17.852;2023-07-24T08:36:05;20.10;99.90
12123;DHT22;6125;59.628;17.852;2023-07-24T08:38:33;20.20;99.90
12123;DHT22;6125;59.628;17.852;2023-07-24T08:41:02;20.30;99.90
12123;DHT22;6125;59.628;17.852;2023-07-24T08:43:30;20.50;99.90
12123;DHT22;6125;59.628;17.852;2023-07-24T08:45:58;20.60;99.90
12123;DHT22;6125;59.628;17.852;2023-07-24T08:48:27;20.80;99.90
12123;DHT22;6125;59.628;17.852;2023-07-24T08:50:56;21.00;99.90
12123;DHT22;6125;59.628;17.852;2023-07-24T08:53:26;21.10;99.90
12123;DHT22;6125;59.628;17.852;2023-07-24T08:55:56;21.10;99.90
12123;DHT22;6125;59.628;17.852;2023-07-24T08:58:24;21.20;99.90
12123;DHT22;6125;59.628;17.852;2023-07-24T09:00:51;21.50;99.90
12123;DHT22;6125;59.628;17.852;2023-07-24T09:03:18;21.60;99.90
12123;DHT22;6125;59.628;17.852;2023-07-24T09:05:46;21.80;99.90
12123;DHT22;6125;59.628;17.852;2023-07-24T09:08:32;21.90;99.90
12123;DHT22;6125;59.628;17.852;2023-07-24T09:11:00;21.90;99.90
12123;DHT22;6125;59.628;17.852;2023-07-24T09:13:28;22.00;99.90
12123;DHT22;6125;59.628;17.852;2023-07-24T09:15:55;22.10;99.90
12123;DHT22;6125;59.628;17.852;2023-07-24T09:18:23;22.10;99.90
12123;DHT22;6125;59.628;17.852;2023-07-24T09:20:50;22.20;99.90
12123;DHT22;6125;59.628;17.852;2023-07-24T09:23:26;22.20;99.90
12123;DHT22;6125;59.628;17.852;2023-07-24T09:25:55;22.30;99.90
12123;DHT22;6125;59.628;17.852;2023-07-24T09:28:22;22.40;99.90
12123;DHT22;6125;59.628;17.852;2023-07-24T09:30:53;22.40;99.90
12123;DHT22;6125;59.628;17.852;2023-07-24T09:33:21;22.50;99.90
12123;DHT22;6125;59.628;17.852;2023-07-24T09:35:57;22.50;99.90
12123;DHT22;6125;59.628;17.852;2023-07-24T09:38:25;22.50;99.90
12123;DHT22;6125;59.628;17.852;2023-07-24T09:40:53;22.40;99.90
12123;DHT22;6125;59.628;17.852;2023-07-24T09:43:23;22.30;99.90
12123;DHT22;6125;59.628;17.852;2023-07-24T09:45:52;22.30;99.90
12123;DHT22;6125;59.628;17.852;2023-07-24T09:48:20;22.40;99.90
12123;DHT22;6125;59.628;17.852;2023-07-24T09:50:48;22.50;99.90
12123;DHT22;6125;59.628;17.852;2023-07-24T09:53:19;22.60;99.90
12123;DHT22;6125;59.628;17.852;2023-07-24T09:55:52;22.70;99.90
12123;DHT22;6125;59.628;17.852;2023-07-24T09:58:23;22.90;99.90
12123;DHT22;6125;59.628;17.852;2023-07-24T10:00:52;23.00;99.90
12123;DHT22;6125;59.628;17.852;2023-07-24T10:03:20;23.10;99.90
12123;DHT22;6125;59.628;17.852;2023-07-24T10:05:48;23.10;99.90
12123;DHT22;6125;59.628;17.852;2023-07-24T10:08:16;23.20;99.90
12123;DHT22;6125;59.628;17.852;2023-07-24T10:10:43;23.30;99.90
12123;DHT22;6125;59.628;17.852;2023-07-24T10:13:12;23.30;99.90
12123;DHT22;6125;59.628;17.852;2023-07-24T10:15:42;23.50;99.90
12123;DHT22;6125;59.628;17.852;2023-07-24T10:18:10;23.80;99.90
12123;DHT22;6125;59.628;17.852;2023-07-24T10:20:38;24.00;99.90
12123;DHT22;6125;59.628;17.852;2023-07-24T10:23:06;24.30;99.90
12123;DHT22;6125;59.628;17.852;2023-07-24T10:25:35;24.60;99.90
12123;DHT22;6125;59.628;17.852;2023-07-24T10:28:06;24.80;99.90
12123;DHT22;6125;59.628;17.852;2023-07-24T10:30:36;24.90;99.90
12123;DHT22;6125;59.628;17.852;2023-07-24T10:33:09;25.10;99.90
12123;DHT22;6125;59.628;17.852;2023-07-24T10:35:38;25.20;99.90
12123;DHT22;6125;59.628;17.852;2023-07-24T10:38:05;25.30;99.90
12123;DHT22;6125;59.628;17.852;2023-07-24T10:40:33;25.40;99.90
12123;DHT22;6125;59.628;17.852;2023-07-24T10:43:03;25.50;99.90
12123;DHT22;6125;59.628;17.852;2023-07-24T10:45:41;25.50;99.90
12123;DHT22;6125;59.628;17.852;2023-07-24T10:48:10;25.60;99.90
12123;DHT22;6125;59.628;17.852;2023-07-24T10:50:39;25.60;99.90
12123;DHT22;6125;59.628;17.852;2023-07-24T10:53:06;25.70;99.90
12123;DHT22;6125;59.628;17.852;2023-07-24T10:55:33;25.80;99.90
12123;DHT22;6125;59.628;17.852;2023-07-24T10:58:00;26.00;99.90
12123;DHT22;6125;59.628;17.852;2023-07-24T11:00:27;26.10;99.90
12123;DHT22;6125;59.628;17.852;2023-07-24T11:02:55;26.10;99.90
12123;DHT22;6125;59.628;17.852;2023-07-24T11:05:23;26.00;99.90
12123;DHT22;6125;59.628;17.852;2023-07-24T11:07:51;26.00;99.90
12123;DHT22;6125;59.628;17.852;2023-07-24T11:10:19;25.90;99.90
12123;DHT22;6125;59.628;17.852;2023-07-24T11:12:46;25.70;99.90
12123;DHT22;6125;59.628;17.852;2023-07-24T11:15:14;25.50;99.90
12123;DHT22;6125;59.628;17.852;2023-07-24T11:17:42;25.30;99.90
12123;DHT22;6125;59.628;17.852;2023-07-24T11:20:10;25.20;99.90
12123;DHT22;6125;59.628;17.852;2023-07-24T11:22:41;25.20;99.90
12123;DHT22;6125;59.628;17.852;2023-07-24T11:25:09;25.30;99.90
12123;DHT22;6125;59.628;17.852;2023-07-24T11:27:40;25.40;99.90
12123;DHT22;6125;59.628;17.852;2023-07-24T11:30:10;25.30;99.90
12123;DHT22;6125;59.628;17.852;2023-07-24T11:32:39;25.30;99.90
12123;DHT22;6125;59.628;17.852;2023-07-24T11:35:07;25.50;99.90
12123;DHT22;6125;59.628;17.852;2023-07-24T11:37:35;25.60;99.90
12123;DHT22;6125;59.628;17.852;2023-07-24T11:40:05;25.80;99.90
12123;DHT22;6125;59.628;17.852;2023-07-24T11:42:38;25.80;99.90
12123;DHT22;6125;59.628;17.852;2023-07-24T11:45:07;25.60;99.90
12123;DHT22;6125;59.628;17.852;2023-07-24T11:47:43;25.70;99.90
12123;DHT22;6125;59.628;17.852;2023-07-24T11:50:11;25.70;99.90
12123;DHT22;6125;59.628;17.852;2023-07-24T11:52:39;25.80;99.90
12123;DHT22;6125;59.628;17.852;2023-07-24T11:55:10;25.80;99.90
12123;DHT22;6125;59.628;17.852;2023-07-24T11:57:37;25.80;99.90
12123;DHT22;6125;59.628;17.852;2023-07-24T12:00:05;25.90;99.90
12123;DHT22;6125;59.628;17.852;2023-07-24T12:02:34;25.90;99.90
12123;DHT22;6125;59.628;17.852;2023-07-24T12:05:01;25.90;99.90
12123;DHT22;6125;59.628;17.852;2023-07-24T12:07:31;25.90;99.90
12123;DHT22;6125;59.628;17.852;2023-07-24T12:09:58;26.00;99.90
12123;DHT22;6125;59.628;17.852;2023-07-24T12:12:37;25.90;99.90
12123;DHT22;6125;59.628;17.852;2023-07-24T12:15:05;25.50;99.90
12123;DHT22;6125;59.628;17.852;2023-07-24T12:17:32;25.30;99.90
12123;DHT22;6125;59.628;17.852;2023-07-24T12:19:59;25.20;99.90
12123;DHT22;6125;59.628;17.852;2023-07-24T12:22:26;25.30;99.90
12123;DHT22;6125;59.628;17.852;2023-07-24T12:24:53;25.20;99.90
12123;DHT22;6125;59.628;17.852;2023-07-24T12:27:20;25.20;99.90
12123;DHT22;6125;59.628;17.852;2023-07-24T12:29:48;25.30;99.90
12123;DHT22;6125;59.628;17.852;2023-07-24T12:32:15;25.30;99.90
12123;DHT22;6125;59.628;17.852;2023-07-24T12:34:43;25.30;99.90
12123;DHT22;6125;59.628;17.852;2023-07-24T12:37:10;25.20;99.90
12123;DHT22;6125;59.628;17.852;2023-07-24T12:39:37;25.20;99.90
12123;DHT22;6125;59.628;17.852;2023-07-24T12:42:05;25.20;99.90
12123;DHT22;6125;59.628;17.852;2023-07-24T12:44:32;25.10;99.90
12123;DHT22;6125;59.628;17.852;2023-07-24T12:47:00;24.90;99.90
12123;DHT22;6125;59.628;17.852;2023-07-24T12:49:27;24.80;99.90
12123;DHT22;6125;59.628;17.852;2023-07-24T12:51:54;24.60;99.90
12123;DHT22;6125;59.628;17.852;2023-07-24T12:54:22;24.70;99.90
12123;DHT22;6125;59.628;17.852;2023-07-24T12:56:49;24.80;99.90
12123;DHT22;6125;59.628;17.852;2023-07-24T12:59:16;24.90;99.90
12123;DHT22;6125;59.628;17.852;2023-07-24T13:01:44;25.00;99.90
12123;DHT22;6125;59.628;17.852;2023-07-24T13:04:13;25.00;99.90
12123;DHT22;6125;59.628;17.852;2023-07-24T13:06:40;25.00;99.90
12123;DHT22;6125;59.628;17.852;2023-07-24T13:09:07;25.10;99.90
12123;DHT22;6125;59.628;17.852;2023-07-24T13:11:42;25.20;99.90
12123;DHT22;6125;59.628;17.852;2023-07-24T13:14:09;25.10;99.90
12123;DHT22;6125;59.628;17.852;2023-07-24T13:16:36;25.10;99.90
12123;DHT22;6125;59.628;17.852;2023-07-24T13:19:03;25.10;99.90
12123;DHT22;6125;59.628;17.852;2023-07-24T13:21:32;25.20;99.90
12123;DHT22;6125;59.628;17.852;2023-07-24T13:23:59;25.20;99.90
12123;DHT22;6125;59.628;17.852;2023-07-24T13:26:26;25.30;99.90
12123;DHT22;6125;59.628;17.852;2023-07-24T13:28:53;25.30;99.90
12123;DHT22;6125;59.628;17.852;2023-07-24T13:31:21;25.40;99.90
12123;DHT22;6125;59.628;17.852;2023-07-24T13:33:48;25.30;99.90
12123;DHT22;6125;59.628;17.852;2023-07-24T13:36:15;25.20;99.90
12123;DHT22;6125;59.628;17.852;2023-07-24T13:38:44;25.30;99.90
12123;DHT22;6125;59.628;17.852;2023-07-24T13:41:11;25.50;99.90
12123;DHT22;6125;59.628;17.852;2023-07-24T13:43:38;25.60;99.90
12123;DHT22;6125;59.628;17.852;2023-07-24T13:46:05;25.80;99.90
12123;DHT22;6125;59.628;17.852;2023-07-24T13:48:33;25.90;99.90
12123;DHT22;6125;59.628;17.852;2023-07-24T13:51:00;26.20;99.90
12123;DHT22;6125;59.628;17.852;2023-07-24T13:53:27;26.20;99.90
12123;DHT22;6125;59.628;17.852;2023-07-24T13:55:56;26.50;99.90
12123;DHT22;6125;59.628;17.852;2023-07-24T13:58:23;26.80;99.90
12123;DHT22;6125;59.628;17.852;2023-07-24T14:00:50;26.90;99.90
12123;DHT22;6125;59.628;17.852;2023-07-24T14:03:17;26.90;99.90
12123;DHT22;6125;59.628;17.852;2023-07-24T14:05:44;27.10;99.90
12123;DHT22;6125;59.628;17.852;2023-07-24T14:08:11;27.20;99.90
12123;DHT22;6125;59.628;17.852;2023-07-24T14:10:38;26.80;99.90
12123;DHT22;6125;59.628;17.852;2023-07-24T14:13:07;26.60;99.90
12123;DHT22;6125;59.628;17.852;2023-07-24T14:15:34;26.30;99.90
12123;DHT22;6125;59.628;17.852;2023-07-24T14:18:01;26.00;99.70
12123;DHT22;6125;59.628;17.852;2023-07-24T14:20:28;25.90;99.80
12123;DHT22;6125;59.628;17.852;2023-07-24T14:22:55;26.00;99.90
12123;DHT22;6125;59.628;17.852;2023-07-24T14:25:22;26.20;99.90
12123;DHT22;6125;59.628;17.852;2023-07-24T14:27:49;26.40;99.60
12123;DHT22;6125;59.628;17.852;2023-07-24T14:30:18;26.60;98.40
12123;DHT22;6125;59.628;17.852;2023-07-24T14:32:45;26.70;98.10
12123;DHT22;6125;59.628;17.852;2023-07-24T14:35:12;26.70;97.80
12123;DHT22;6125;59.628;17.852;2023-07-24T14:37:39;26.80;96.70
12123;DHT22;6125;59.628;17.852;2023-07-24T14:40:09;26.80;96.30
12123;DHT22;6125;59.628;17.852;2023-07-24T14:42:36;26.70;97.20
12123;DHT22;6125;59.628;17.852;2023-07-24T14:45:04;26.80;98.10
12123;DHT22;6125;59.628;17.852;2023-07-24T14:47:33;26.90;98.80
12123;DHT22;6125;59.628;17.852;2023-07-24T14:50:00;26.90;98.60
12123;DHT22;6125;59.628;17.852;2023-07-24T14:52:27;26.70;99.00
12123;DHT22;6125;59.628;17.852;2023-07-24T14:54:54;26.70;99.20
12123;DHT22;6125;59.628;17.852;2023-07-24T14:57:21;26.80;99.50
12123;DHT22;6125;59.628;17.852;2023-07-24T14:59:48;27.10;98.90
12123;DHT22;6125;59.628;17.852;2023-07-24T15:02:15;27.20;99.30
12123;DHT22;6125;59.628;17.852;2023-07-24T15:04:44;27.00;99.60
12123;DHT22;6125;59.628;17.852;2023-07-24T15:07:11;27.10;99.90
12123;DHT22;6125;59.628;17.852;2023-07-24T15:09:38;27.10;99.90
12123;DHT22;6125;59.628;17.852;2023-07-24T15:12:05;26.90;99.80
12123;DHT22;6125;59.628;17.852;2023-07-24T15:14:32;26.90;99.90
12123;DHT22;6125;59.628;17.852;2023-07-24T15:16:59;27.20;99.30
12123;DHT22;6125;59.628;17.852;2023-07-24T15:19:26;27.60;99.40
12123;DHT22;6125;59.628;17.852;2023-07-24T15:21:55;28.10;99.90
12123;DHT22;6125;59.628;17.852;2023-07-24T15:24:22;28.60;99.90
12123;DHT22;6125;59.628;17.852;2023-07-24T15:26:49;28.90;99.90
12123;DHT22;6125;59.628;17.852;2023-07-24T15:29:16;29.00;99.90
12123;DHT22;6125;59.628;17.852;2023-07-24T15:31:44;29.20;98.80
12123;DHT22;6125;59.628;17.852;2023-07-24T15:34:11;29.40;99.40